Time;durP1;ratioP1;P1;durP2;ratioP2;P2;SDS_P1;SDS_P2;PMS_P1;PMS_P2;Temp;Humidity;BMP_temperature;BMP_pressure;BME280_temperature;BME280_humidity;BME280_pressure;Samples;Min_cycle;Max_cycle;Signal;HPM_P1;HPM_P2
2022/01/17 00:01:28;;;;;;;16.67;12.60;;;2.20;99.90;;;;;;5025677;28;20276;-73
2022/01/17 00:03:54;;;;;;;18.33;13.93;;;2.20;99.90;;;;;;5037818;28;20275;-73
2022/01/17 00:06:19;;;;;;;18.30;11.33;;;2.10;99.90;;;;;;5031375;28;20244;-73
2022/01/17 00:08:46;;;;;;;18.40;12.97;;;2.00;99.90;;;;;;5035289;28;20212;-73
2022/01/17 00:11:12;;;;;;;18.50;13.70;;;1.90;99.90;;;;;;5034208;28;20173;-73
2022/01/17 00:13:39;;;;;;;17.57;13.27;;;2.00;99.90;;;;;;5025150;28;20250;-73
2022/01/17 00:16:10;;;;;;;16.67;12.70;;;2.10;99.90;;;;;;5040311;28;20176;-73
2022/01/17 00:21:04;;;;;;;16.70;12.13;;;2.10;99.90;;;;;;5025421;28;20743;-74
2022/01/17 00:23:30;;;;;;;18.80;12.97;;;2.10;99.90;;;;;;5038162;28;20188;-74
2022/01/17 00:25:56;;;;;;;15.17;12.60;;;2.20;99.90;;;;;;5040440;28;20180;-74
2022/01/17 00:28:22;;;;;;;16.33;11.43;;;2.10;99.90;;;;;;5032190;28;20232;-74
2022/01/17 00:30:47;;;;;;;14.40;11.33;;;2.20;99.90;;;;;;5030846;28;20242;-74
2022/01/17 00:33:13;;;;;;;13.13;9.17;;;2.20;99.90;;;;;;5039237;28;20671;-74
2022/01/17 00:35:39;;;;;;;16.20;11.53;;;2.20;99.90;;;;;;5044901;28;20217;-74
2022/01/17 00:38:05;;;;;;;16.17;12.60;;;2.20;99.90;;;;;;5031066;28;20181;-74
2022/01/17 00:40:31;;;;;;;15.20;11.57;;;2.10;99.90;;;;;;5033181;28;20176;-74
2022/01/17 00:42:57;;;;;;;16.37;12.70;;;2.10;99.90;;;;;;5030444;28;20279;-74
2022/01/17 00:45:27;;;;;;;9.03;7.23;;;2.10;99.90;;;;;;5036103;28;20336;-73
2022/01/17 00:47:55;;;;;;;15.33;11.43;;;2.20;99.90;;;;;;5033434;28;20208;-73
2022/01/17 00:50:22;;;;;;;14.87;12.00;;;2.20;99.90;;;;;;5029119;28;20551;-74
2022/01/17 00:52:48;;;;;;;15.23;11.63;;;2.10;99.90;;;;;;5040783;28;20200;-74
2022/01/17 00:55:14;;;;;;;15.50;11.27;;;2.00;99.90;;;;;;5041936;28;20229;-74
2022/01/17 00:57:40;;;;;;;15.20;12.50;;;1.90;99.90;;;;;;5030373;28;20270;-74
2022/01/17 01:00:08;;;;;;;16.87;12.10;;;1.90;99.90;;;;;;5032315;28;20190;-74
2022/01/17 01:02:34;;;;;;;16.47;12.23;;;1.90;99.90;;;;;;5025234;28;20665;-74
2022/01/17 01:05:00;;;;;;;14.80;11.43;;;1.80;99.90;;;;;;5020900;28;20177;-74
2022/01/17 01:07:26;;;;;;;15.10;11.43;;;1.90;99.90;;;;;;5021995;28;20212;-74
2022/01/17 01:10:02;;;;;;;10.03;7.03;;;1.90;99.90;;;;;;5025996;28;20252;-74
2022/01/17 01:12:28;;;;;;;8.93;7.60;;;2.00;99.90;;;;;;5021043;28;20644;-74
2022/01/17 01:14:55;;;;;;;13.50;10.57;;;2.10;99.90;;;;;;5023007;28;20247;-74
2022/01/17 01:17:48;;;;;;;15.17;10.70;;;2.20;99.90;;;;;;5024723;28;20179;-74
2022/01/17 01:28:29;;;;;;;14.27;11.17;;;2.20;99.90;;;;;;5036132;28;20617;-74
2022/01/17 01:30:56;;;;;;;12.53;10.77;;;2.30;99.90;;;;;;5031249;28;20243;-74
2022/01/17 01:33:27;;;;;;;11.23;8.50;;;2.40;99.90;;;;;;5031828;28;20214;-74
2022/01/17 01:36:00;;;;;;;12.63;9.97;;;2.40;99.90;;;;;;5033142;28;20203;-74
2022/01/17 01:38:26;;;;;;;13.77;10.30;;;2.40;99.90;;;;;;5031940;28;20679;-74
2022/01/17 01:40:52;;;;;;;11.57;10.03;;;2.40;99.90;;;;;;5032888;28;20184;-74
2022/01/17 01:43:18;;;;;;;12.07;9.83;;;2.30;99.90;;;;;;5038509;28;20305;-73
2022/01/17 01:45:48;;;;;;;11.87;9.93;;;2.30;99.90;;;;;;5031455;28;20555;-73
2022/01/17 01:48:15;;;;;;;12.13;9.70;;;2.20;99.90;;;;;;5037544;28;20279;-74
2022/01/17 01:50:40;;;;;;;14.23;9.63;;;2.10;99.90;;;;;;5036615;28;20177;-73
2022/01/17 01:53:06;;;;;;;11.57;10.27;;;2.20;99.90;;;;;;5033464;28;20211;-73
2022/01/17 01:55:32;;;;;;;11.27;10.07;;;2.30;99.90;;;;;;5035885;28;20173;-73
2022/01/17 01:57:57;;;;;;;13.80;10.40;;;2.30;99.90;;;;;;5019863;28;20637;-74
2022/01/17 02:00:24;;;;;;;12.53;9.73;;;2.30;99.90;;;;;;5031423;28;20243;-74
2022/01/17 02:02:49;;;;;;;10.00;8.23;;;2.30;99.90;;;;;;5032924;28;20200;-74
2022/01/17 02:05:15;;;;;;;11.47;7.90;;;2.40;99.90;;;;;;5030208;28;20654;-74
2022/01/17 02:07:45;;;;;;;11.87;9.33;;;2.50;99.90;;;;;;5031322;28;20204;-74
2022/01/17 02:10:11;;;;;;;11.70;8.87;;;2.50;99.90;;;;;;5034499;28;20179;-74
2022/01/17 02:12:37;;;;;;;11.63;9.80;;;2.40;99.90;;;;;;5035354;28;20176;-74
2022/01/17 02:15:03;;;;;;;10.77;9.33;;;2.50;99.90;;;;;;5038526;28;20853;-74
2022/01/17 02:17:33;;;;;;;11.40;8.73;;;2.40;99.90;;;;;;5031397;28;20165;-74
2022/01/17 02:20:06;;;;;;;12.00;9.63;;;2.50;99.90;;;;;;5039392;28;20560;-74
2022/01/17 02:22:32;;;;;;;11.73;8.30;;;2.60;99.90;;;;;;5037797;28;20177;-74
2022/01/17 02:24:58;;;;;;;12.43;9.73;;;2.50;99.90;;;;;;5028634;28;20183;-74
2022/01/17 02:27:25;;;;;;;11.93;9.23;;;2.40;99.90;;;;;;5011720;28;20213;-74
2022/01/17 02:29:50;;;;;;;9.37;7.57;;;2.50;99.90;;;;;;5027653;28;20215;-74
2022/01/17 02:32:16;;;;;;;13.27;9.63;;;2.50;99.90;;;;;;5027350;28;20176;-74
2022/01/17 02:34:42;;;;;;;6.67;5.97;;;2.40;99.90;;;;;;5035694;28;20197;-73
2022/01/17 02:37:09;;;;;;;10.23;7.37;;;2.40;99.90;;;;;;5036911;28;20176;-74
2022/01/17 02:39:35;;;;;;;10.60;9.50;;;2.50;99.90;;;;;;5040387;28;20655;-74
2022/01/17 02:42:02;;;;;;;11.03;9.47;;;2.50;99.90;;;;;;5034695;28;20227;-74
2022/01/17 02:44:28;;;;;;;12.63;10.57;;;2.50;99.90;;;;;;5034543;28;20192;-74
2022/01/17 02:46:53;;;;;;;11.00;8.53;;;2.50;99.90;;;;;;5037068;28;20227;-74
2022/01/17 02:49:19;;;;;;;10.60;8.13;;;2.50;99.90;;;;;;5037107;28;20169;-74
2022/01/17 02:51:48;;;;;;;8.07;5.50;;;2.50;99.90;;;;;;5042214;28;20200;-74
2022/01/17 02:54:14;;;;;;;11.77;9.57;;;2.50;99.90;;;;;;5036136;28;20200;-74
2022/01/17 02:56:40;;;;;;;10.43;9.03;;;2.60;99.90;;;;;;5032960;28;20181;-73
2022/01/17 02:59:06;;;;;;;12.57;9.63;;;2.70;99.90;;;;;;5027434;28;20189;-74
2022/01/17 03:01:32;;;;;;;10.73;7.77;;;2.60;99.90;;;;;;5035828;28;20184;-74
2022/01/17 03:07:20;;;;;;;10.30;9.20;;;2.70;99.90;;;;;;5038764;28;20626;-74
2022/01/17 03:10:01;;;;;;;14.53;8.93;;;2.70;99.90;;;;;;5034261;28;20177;-74
2022/01/17 03:12:26;;;;;;;11.20;9.00;;;2.70;99.90;;;;;;5040926;28;20171;-74
2022/01/17 03:14:52;;;;;;;11.60;8.50;;;2.60;99.90;;;;;;5029448;28;20280;-74
2022/01/17 03:17:18;;;;;;;10.30;6.80;;;2.60;99.90;;;;;;5014293;28;20230;-74
2022/01/17 03:19:43;;;;;;;11.93;9.67;;;2.50;99.90;;;;;;5029303;28;20173;-74
2022/01/17 03:22:09;;;;;;;10.37;8.07;;;2.50;99.90;;;;;;5044717;28;20176;-74
2022/01/17 03:24:34;;;;;;;10.27;8.63;;;2.50;99.90;;;;;;5033142;28;20283;-74
2022/01/17 03:27:00;;;;;;;9.47;8.23;;;2.60;99.90;;;;;;5026079;28;20204;-74
2022/01/17 03:29:26;;;;;;;11.87;9.63;;;2.70;99.90;;;;;;5033679;28;20219;-75
2022/01/17 03:31:51;;;;;;;9.07;7.97;;;2.60;99.90;;;;;;5036953;28;20267;-74
2022/01/17 03:34:17;;;;;;;9.50;8.40;;;2.60;99.90;;;;;;5030217;28;20223;-74
2022/01/17 03:36:44;;;;;;;10.43;8.77;;;2.60;99.90;;;;;;5023399;28;20191;-74
2022/01/17 03:39:10;;;;;;;10.00;7.50;;;2.70;99.90;;;;;;5035667;28;20180;-73
2022/01/17 03:41:37;;;;;;;10.30;9.23;;;2.60;99.90;;;;;;5043223;28;20169;-74
2022/01/17 03:44:02;;;;;;;9.27;7.83;;;2.70;99.90;;;;;;5023815;28;20209;-74
2022/01/17 03:46:28;;;;;;;11.67;7.50;;;2.60;99.90;;;;;;5039804;28;20226;-74
2022/01/17 03:48:54;;;;;;;11.07;8.50;;;2.60;99.90;;;;;;5045285;28;20212;-74
2022/01/17 03:51:19;;;;;;;8.20;6.33;;;2.60;99.90;;;;;;5033302;28;20169;-74
2022/01/17 03:53:45;;;;;;;10.40;8.03;;;2.70;99.90;;;;;;5048770;28;20264;-74
2022/01/17 03:56:11;;;;;;;10.93;8.30;;;2.80;99.90;;;;;;5037253;28;20227;-75
2022/01/17 03:58:36;;;;;;;5.10;4.63;;;2.80;99.90;;;;;;5036122;28;20173;-75
2022/01/17 04:01:03;;;;;;;9.27;7.90;;;2.80;99.90;;;;;;5033417;28;20255;-75
2022/01/17 04:03:29;;;;;;;11.90;10.00;;;2.70;99.90;;;;;;5044636;28;20701;-75
2022/01/17 04:05:55;;;;;;;12.00;9.60;;;2.70;99.90;;;;;;5033599;28;20216;-75
2022/01/17 04:08:21;;;;;;;12.07;9.90;;;2.70;99.90;;;;;;5028696;28;20196;-75
2022/01/17 04:10:48;;;;;;;9.20;8.07;;;2.60;99.90;;;;;;5030969;28;20262;-74
2022/01/17 04:13:14;;;;;;;9.77;7.73;;;2.70;99.90;;;;;;5032457;28;20197;-75
2022/01/17 04:15:40;;;;;;;8.53;7.30;;;2.60;99.90;;;;;;5032590;28;20196;-75
2022/01/17 04:18:07;;;;;;;9.63;8.63;;;2.70;99.90;;;;;;5035682;28;20176;-74
2022/01/17 04:20:33;;;;;;;9.37;7.50;;;2.70;99.90;;;;;;5030346;28;20278;-74
2022/01/17 04:23:02;;;;;;;11.30;9.67;;;2.60;99.90;;;;;;5029683;28;20219;-74
2022/01/17 04:25:30;;;;;;;11.57;9.80;;;2.60;99.90;;;;;;5040823;28;20191;-74
2022/01/17 04:27:57;;;;;;;11.77;8.03;;;2.60;99.90;;;;;;5038264;28;20754;-74
2022/01/17 04:30:23;;;;;;;10.43;8.00;;;2.60;99.90;;;;;;5026223;28;20263;-74
2022/01/17 04:32:49;;;;;;;8.23;6.87;;;2.50;99.90;;;;;;5032208;28;20256;-75
2022/01/17 04:35:20;;;;;;;11.20;9.60;;;2.60;99.90;;;;;;5042988;28;20180;-74
2022/01/17 04:37:51;;;;;;;7.93;6.93;;;2.60;99.90;;;;;;5028297;28;20195;-74
2022/01/17 04:40:17;;;;;;;13.10;9.60;;;2.60;99.90;;;;;;5026683;28;20665;-74
2022/01/17 04:42:45;;;;;;;11.57;9.30;;;2.60;99.90;;;;;;5032680;28;20207;-74
2022/01/17 04:45:14;;;;;;;12.23;9.60;;;2.60;99.90;;;;;;5040354;28;20231;-74
2022/01/17 04:47:42;;;;;;;13.00;9.83;;;2.60;99.90;;;;;;5032963;28;20626;-74
2022/01/17 04:50:14;;;;;;;12.63;10.67;;;2.60;99.90;;;;;;5036207;28;20643;-74
2022/01/17 04:52:40;;;;;;;10.93;8.93;;;2.60;99.90;;;;;;5035928;28;20187;-74
2022/01/17 04:55:08;;;;;;;10.50;9.07;;;2.60;99.90;;;;;;5041306;28;20535;-74
2022/01/17 04:57:35;;;;;;;9.53;5.97;;;2.60;99.90;;;;;;5035527;28;20655;-74
2022/01/17 05:00:01;;;;;;;12.87;9.47;;;2.60;99.90;;;;;;5036519;28;20189;-74
2022/01/17 05:02:27;;;;;;;12.97;11.20;;;2.60;99.90;;;;;;5033254;28;20177;-73
2022/01/17 05:04:53;;;;;;;13.13;10.10;;;2.50;99.90;;;;;;5032155;28;20234;-73
2022/01/17 05:07:19;;;;;;;12.47;9.70;;;2.50;99.90;;;;;;5027034;28;20203;-73
2022/01/17 05:09:46;;;;;;;13.33;10.77;;;2.40;99.90;;;;;;5031792;28;20173;-74
2022/01/17 05:12:12;;;;;;;15.00;12.03;;;2.40;99.90;;;;;;5037282;28;20679;-73
2022/01/17 05:14:43;;;;;;;15.07;11.57;;;2.50;99.90;;;;;;5027794;28;20193;-73
2022/01/17 05:17:34;;;;;;;12.20;8.60;;;2.50;99.90;;;;;;5035640;28;20180;-74
2022/01/17 05:19:59;;;;;;;12.77;10.77;;;2.50;99.90;;;;;;5033879;28;20292;-74
2022/01/17 05:22:36;;;;;;;14.27;10.17;;;2.60;99.90;;;;;;5038688;28;20191;-74
2022/01/17 05:25:06;;;;;;;9.07;7.97;;;2.60;99.90;;;;;;5031671;28;20184;-74
2022/01/17 05:27:32;;;;;;;10.03;8.83;;;2.60;99.90;;;;;;5034489;28;20199;-74
2022/01/17 05:29:58;;;;;;;14.73;11.70;;;2.60;99.90;;;;;;5030166;28;20180;-74
2022/01/17 05:32:24;;;;;;;13.80;10.77;;;2.60;99.90;;;;;;5027764;28;20235;-75
2022/01/17 05:34:50;;;;;;;14.70;11.93;;;2.60;99.90;;;;;;5023438;28;20176;-75
2022/01/17 05:37:15;;;;;;;17.17;13.53;;;2.50;99.90;;;;;;5021776;28;20213;-74
2022/01/17 05:39:42;;;;;;;14.63;11.30;;;2.50;99.90;;;;;;5018597;28;20189;-74
2022/01/17 05:42:14;;;;;;;13.20;10.13;;;2.50;99.90;;;;;;5024778;28;20185;-74
2022/01/17 05:44:39;;;;;;;17.10;12.50;;;2.50;99.90;;;;;;5026666;28;20231;-74
2022/01/17 05:47:06;;;;;;;16.43;9.53;;;2.50;99.90;;;;;;5027537;28;20208;-74
2022/01/17 05:49:31;;;;;;;7.57;6.57;;;2.50;99.90;;;;;;5021001;28;20217;-75
2022/01/17 05:51:57;;;;;;;11.20;9.10;;;2.60;99.90;;;;;;5019814;28;20176;-74
2022/01/17 05:54:22;;;;;;;12.00;9.37;;;2.60;99.90;;;;;;5019791;28;20338;-75
2022/01/17 05:56:48;;;;;;;14.17;11.17;;;2.60;99.90;;;;;;5036432;28;20173;-74
2022/01/17 05:59:14;;;;;;;15.57;9.93;;;2.60;99.90;;;;;;5036708;28;20168;-75
2022/01/17 06:01:42;;;;;;;13.53;9.93;;;2.60;99.90;;;;;;5017948;28;20193;-74
2022/01/17 06:04:09;;;;;;;15.43;12.67;;;2.60;99.90;;;;;;5019831;28;20193;-75
2022/01/17 06:06:34;;;;;;;13.50;9.90;;;2.70;99.90;;;;;;5018895;28;20181;-75
2022/01/17 06:09:00;;;;;;;13.07;11.67;;;2.70;99.90;;;;;;5023767;28;20200;-75
2022/01/17 06:11:25;;;;;;;12.93;9.67;;;2.60;99.90;;;;;;5022820;28;20191;-74
2022/01/17 06:13:51;;;;;;;15.47;12.00;;;2.70;99.90;;;;;;5025058;28;20204;-75
2022/01/17 06:16:17;;;;;;;15.87;12.63;;;2.80;99.90;;;;;;5023812;28;20226;-75
2022/01/17 06:18:43;;;;;;;14.10;10.13;;;2.70;99.90;;;;;;5022902;28;20537;-74
2022/01/17 06:21:09;;;;;;;12.40;10.33;;;2.80;99.90;;;;;;5024812;28;20196;-75
2022/01/17 06:23:35;;;;;;;15.70;11.97;;;2.80;99.90;;;;;;5023654;28;20698;-73
2022/01/17 06:26:00;;;;;;;10.93;9.07;;;2.90;99.90;;;;;;5034763;28;20173;-72
2022/01/17 06:28:26;;;;;;;16.10;12.27;;;2.90;99.90;;;;;;5039621;28;20200;-73
2022/01/17 06:30:51;;;;;;;15.37;11.80;;;2.90;99.90;;;;;;5028047;28;20184;-75
2022/01/17 06:33:17;;;;;;;12.30;6.03;;;2.90;99.90;;;;;;5024474;28;20332;-74
2022/01/17 06:35:43;;;;;;;16.37;12.63;;;2.90;99.90;;;;;;5028900;28;20184;-74
2022/01/17 06:38:08;;;;;;;11.80;8.87;;;3.00;99.90;;;;;;5026762;28;20561;-74
2022/01/17 06:40:34;;;;;;;12.23;8.97;;;3.10;99.90;;;;;;5025569;28;20185;-73
2022/01/17 06:43:00;;;;;;;10.53;7.93;;;3.10;99.90;;;;;;5028935;28;20330;-72
2022/01/17 06:45:25;;;;;;;13.53;10.90;;;3.20;99.90;;;;;;5026514;28;20183;-74
2022/01/17 06:47:51;;;;;;;14.03;10.97;;;3.20;99.90;;;;;;5025099;28;20200;-74
2022/01/17 06:50:17;;;;;;;16.43;13.50;;;3.20;99.90;;;;;;5042128;28;20173;-74
2022/01/17 06:52:43;;;;;;;15.33;11.67;;;3.20;99.90;;;;;;5034069;28;20180;-74
2022/01/17 06:55:09;;;;;;;16.50;11.83;;;3.20;99.90;;;;;;5031988;28;20657;-74
2022/01/17 06:57:36;;;;;;;13.63;10.40;;;3.20;99.90;;;;;;5030448;28;20655;-74
2022/01/17 07:00:04;;;;;;;20.07;15.23;;;3.10;99.90;;;;;;5031743;28;20184;-74
2022/01/17 07:02:30;;;;;;;17.50;13.23;;;3.00;99.90;;;;;;5028915;28;20180;-74
2022/01/17 07:04:55;;;;;;;16.47;11.27;;;3.00;99.90;;;;;;5032823;28;20307;-74
2022/01/17 07:07:21;;;;;;;18.73;14.20;;;3.00;99.90;;;;;;5035270;28;20671;-74
2022/01/17 07:09:47;;;;;;;20.50;13.00;;;3.10;99.90;;;;;;5028060;28;20182;-73
2022/01/17 07:12:12;;;;;;;14.70;10.80;;;3.00;99.90;;;;;;5036711;28;20268;-74
2022/01/17 07:14:41;;;;;;;17.63;13.37;;;3.00;99.90;;;;;;5036366;28;20280;-74
2022/01/17 07:17:09;;;;;;;19.53;13.97;;;3.00;99.90;;;;;;5038022;28;20301;-75
2022/01/17 07:19:35;;;;;;;17.73;13.03;;;3.00;99.90;;;;;;5039335;28;20175;-75
2022/01/17 07:22:00;;;;;;;15.07;10.07;;;2.90;99.90;;;;;;5034943;28;20181;-73
2022/01/17 07:24:26;;;;;;;16.67;11.27;;;3.00;99.90;;;;;;5026620;28;20204;-73
2022/01/17 07:26:51;;;;;;;14.13;8.80;;;3.10;99.90;;;;;;5044982;28;20184;-73
2022/01/17 07:29:17;;;;;;;14.57;10.90;;;3.10;99.90;;;;;;5034441;28;20172;-73
2022/01/17 07:31:43;;;;;;;14.33;12.50;;;3.30;99.90;;;;;;5034507;28;20184;-73
2022/01/17 07:34:08;;;;;;;15.57;12.27;;;3.30;99.90;;;;;;5031389;28;20667;-73
2022/01/17 07:36:34;;;;;;;19.30;11.70;;;3.30;99.90;;;;;;5033288;28;20263;-73
2022/01/17 07:39:00;;;;;;;12.17;9.53;;;3.30;99.90;;;;;;5033839;28;20199;-72
2022/01/17 07:41:26;;;;;;;17.90;12.13;;;3.30;99.90;;;;;;5031370;28;20187;-73
2022/01/17 07:43:53;;;;;;;16.00;11.40;;;3.30;99.90;;;;;;5043727;28;20218;-73
2022/01/17 07:46:25;;;;;;;17.40;13.47;;;3.30;99.90;;;;;;5042979;28;20165;-73
2022/01/17 07:49:09;;;;;;;17.37;11.50;;;3.30;99.90;;;;;;5041341;28;20207;-73
2022/01/17 07:51:35;;;;;;;17.53;13.53;;;3.20;99.90;;;;;;5035577;28;20175;-74
2022/01/17 07:54:00;;;;;;;17.13;12.50;;;3.20;99.90;;;;;;5024053;28;20300;-77
2022/01/17 07:56:26;;;;;;;15.83;10.03;;;3.20;99.90;;;;;;5024478;28;20303;-73
2022/01/17 07:58:52;;;;;;;15.53;11.63;;;3.30;99.90;;;;;;5036917;28;20184;-73
2022/01/17 08:01:18;;;;;;;14.73;11.33;;;3.30;99.90;;;;;;5025572;28;20199;-74
2022/01/17 08:03:44;;;;;;;11.93;8.57;;;3.30;99.90;;;;;;5046832;28;20211;-73
2022/01/17 08:06:10;;;;;;;14.70;12.30;;;3.30;99.90;;;;;;5019338;28;20922;-73
2022/01/17 08:08:35;;;;;;;17.07;11.80;;;3.40;99.90;;;;;;5018537;28;20208;-73
2022/01/17 08:11:01;;;;;;;13.37;10.67;;;3.40;99.90;;;;;;5023739;28;20493;-76
2022/01/17 08:13:27;;;;;;;16.93;12.00;;;3.40;99.90;;;;;;5023818;28;20201;-76
2022/01/17 08:15:52;;;;;;;16.40;10.63;;;3.40;99.90;;;;;;5020728;28;20182;-75
2022/01/17 08:18:18;;;;;;;13.87;11.07;;;3.50;99.90;;;;;;5017681;28;20279;-75
2022/01/17 08:20:44;;;;;;;15.00;10.23;;;3.60;99.90;;;;;;5026640;28;20550;-75
2022/01/17 08:23:10;;;;;;;14.13;9.80;;;3.60;99.90;;;;;;5026505;28;20270;-76
2022/01/17 08:25:37;;;;;;;16.40;12.37;;;3.50;99.90;;;;;;5020450;28;20616;-75
2022/01/17 08:28:03;;;;;;;15.13;11.63;;;3.50;99.90;;;;;;5028721;28;20209;-74
2022/01/17 08:30:31;;;;;;;11.80;6.93;;;3.40;99.90;;;;;;5027429;28;20175;-75
2022/01/17 08:32:57;;;;;;;9.87;7.73;;;3.50;99.90;;;;;;5026303;28;20196;-75
2022/01/17 08:35:23;;;;;;;12.23;8.80;;;3.50;99.90;;;;;;5020367;28;20185;-75
2022/01/17 08:37:48;;;;;;;14.63;9.00;;;3.40;99.90;;;;;;5028457;28;20181;-76
2022/01/17 08:40:15;;;;;;;13.43;11.17;;;3.50;99.90;;;;;;5024420;28;20173;-75
2022/01/17 08:42:41;;;;;;;11.97;8.57;;;3.60;99.90;;;;;;5030536;28;20231;-74
2022/01/17 08:45:10;;;;;;;12.63;8.10;;;3.70;99.90;;;;;;5027529;28;20184;-74
2022/01/17 08:47:36;;;;;;;14.93;11.17;;;3.80;99.90;;;;;;5029325;28;20693;-71
2022/01/17 08:50:04;;;;;;;10.93;8.30;;;3.80;99.90;;;;;;5033959;28;20263;-72
2022/01/17 08:52:30;;;;;;;12.17;10.27;;;3.80;99.90;;;;;;5037623;28;20660;-72
2022/01/17 08:54:56;;;;;;;14.20;11.80;;;3.80;99.90;;;;;;5026866;28;20256;-72
2022/01/17 08:57:21;;;;;;;11.13;8.83;;;3.70;99.90;;;;;;5025888;28;20181;-73
2022/01/17 08:59:47;;;;;;;11.03;7.80;;;3.70;99.90;;;;;;5031494;28;20193;-73
2022/01/17 09:02:13;;;;;;;10.00;7.77;;;3.70;99.90;;;;;;5028141;28;20226;-72
2022/01/17 09:04:42;;;;;;;21.73;10.07;;;3.80;99.90;;;;;;5036859;28;20199;-72
2022/01/17 09:07:15;;;;;;;9.10;7.27;;;3.80;99.90;;;;;;5028492;28;20187;-73
2022/01/17 09:09:43;;;;;;;13.13;9.40;;;3.80;99.90;;;;;;5027430;28;20177;-72
2022/01/17 09:12:10;;;;;;;12.13;8.90;;;3.90;99.90;;;;;;5035773;28;20188;-72
2022/01/17 09:14:37;;;;;;;10.20;8.27;;;3.90;99.90;;;;;;5025694;28;20201;-73
2022/01/17 09:17:07;;;;;;;12.37;10.03;;;4.00;99.90;;;;;;5015309;28;20196;-73
2022/01/17 09:19:33;;;;;;;13.27;10.77;;;4.00;99.90;;;;;;5032793;28;20643;-74
2022/01/17 09:21:59;;;;;;;11.93;9.73;;;3.90;99.90;;;;;;5031506;28;20176;-74
2022/01/17 09:24:25;;;;;;;9.50;7.27;;;3.90;99.90;;;;;;5026753;28;20207;-75
2022/01/17 09:26:50;;;;;;;9.60;7.83;;;3.90;99.90;;;;;;5032342;28;20257;-76
2022/01/17 09:29:17;;;;;;;10.83;7.27;;;3.90;99.90;;;;;;5030698;28;20181;-73
2022/01/17 09:31:42;;;;;;;9.13;7.63;;;4.10;99.90;;;;;;5026534;28;20808;-71
2022/01/17 09:34:08;;;;;;;12.67;8.70;;;4.10;99.90;;;;;;5026500;28;20207;-73
2022/01/17 09:36:34;;;;;;;10.60;9.00;;;4.10;99.90;;;;;;5026099;28;20181;-72
2022/01/17 09:39:05;;;;;;;9.67;7.97;;;4.10;99.90;;;;;;5021163;28;20181;-72
2022/01/17 09:41:31;;;;;;;11.17;8.67;;;4.00;99.90;;;;;;5025659;28;20170;-72
2022/01/17 09:43:58;;;;;;;10.23;9.10;;;3.90;99.90;;;;;;5030642;28;20228;-72
2022/01/17 09:46:27;;;;;;;9.23;7.90;;;3.90;99.90;;;;;;5032362;28;20194;-72
2022/01/17 09:49:01;;;;;;;11.30;8.67;;;3.90;99.90;;;;;;5034451;28;20694;-71
2022/01/17 09:52:02;;;;;;;10.43;7.40;;;3.90;99.90;;;;;;5035424;28;20181;-71
2022/01/17 09:54:30;;;;;;;11.93;10.20;;;3.90;99.90;;;;;;5031442;28;20406;-72
2022/01/17 09:56:57;;;;;;;10.53;8.33;;;3.90;99.90;;;;;;5040080;28;20414;-72
2022/01/17 09:59:23;;;;;;;8.30;6.80;;;4.00;99.90;;;;;;5032638;28;20234;-72
2022/01/17 10:01:50;;;;;;;11.23;8.77;;;4.00;99.90;;;;;;5030566;28;20859;-76
2022/01/17 10:04:17;;;;;;;9.63;7.50;;;4.00;99.90;;;;;;5026040;28;20199;-75
2022/01/17 10:06:51;;;;;;;8.97;6.50;;;4.00;99.90;;;;;;5030544;28;20259;-73
2022/01/17 10:09:21;;;;;;;10.60;8.10;;;4.10;99.90;;;;;;5029265;28;20233;-76
2022/01/17 10:12:08;;;;;;;10.00;8.97;;;4.20;99.90;;;;;;5040993;28;20191;-75
2022/01/17 10:14:45;;;;;;;9.50;8.10;;;4.20;99.90;;;;;;5024627;28;20586;-75
2022/01/17 10:17:16;;;;;;;10.67;9.20;;;4.10;99.90;;;;;;5033575;28;20176;-75
2022/01/17 10:19:43;;;;;;;9.00;6.97;;;4.10;99.90;;;;;;5030554;28;20705;-77
2022/01/17 10:22:18;;;;;;;8.17;6.47;;;4.30;99.90;;;;;;5033465;28;20172;-75
2022/01/17 10:27:40;;;;;;;10.23;6.80;;;4.30;99.90;;;;;;5036334;28;20235;-73
2022/01/17 10:35:36;;;;;;;7.80;6.77;;;4.40;99.90;;;;;;5033383;28;20187;-73
2022/01/17 10:38:10;;;;;;;7.67;6.37;;;4.40;99.90;;;;;;5028212;28;20185;-74
2022/01/17 10:40:45;;;;;;;9.40;8.30;;;4.40;99.90;;;;;;5026709;28;20565;-73
2022/01/17 10:43:28;;;;;;;10.30;8.27;;;4.40;99.90;;;;;;5029882;28;20204;-73
2022/01/17 10:45:56;;;;;;;4.70;4.30;;;4.40;99.90;;;;;;5032296;28;20211;-74
2022/01/17 10:48:28;;;;;;;9.07;7.87;;;4.50;99.90;;;;;;5027739;28;20205;-73
2022/01/17 10:50:54;;;;;;;7.23;6.30;;;4.60;99.90;;;;;;5029794;28;20271;-74
2022/01/17 10:53:20;;;;;;;8.43;7.30;;;4.50;99.90;;;;;;5021886;28;20280;-73
2022/01/17 10:55:52;;;;;;;8.33;6.83;;;4.50;99.90;;;;;;5022592;28;20192;-74
2022/01/17 10:58:23;;;;;;;8.60;7.00;;;4.40;99.90;;;;;;5026956;28;20188;-74
2022/01/17 11:00:52;;;;;;;6.90;5.97;;;4.50;99.90;;;;;;5027277;28;20287;-73
2022/01/17 11:03:24;;;;;;;7.67;6.93;;;4.60;99.90;;;;;;5029313;28;20210;-75
2022/01/17 11:05:53;;;;;;;7.90;5.93;;;4.60;99.90;;;;;;5038906;28;20180;-75
2022/01/17 11:08:21;;;;;;;8.43;7.63;;;4.60;99.90;;;;;;5026742;28;20579;-74
2022/01/17 11:10:50;;;;;;;6.80;5.73;;;4.50;99.90;;;;;;5027385;28;20272;-73
2022/01/17 11:13:18;;;;;;;7.73;6.73;;;4.50;99.90;;;;;;5026693;28;20224;-74
2022/01/17 11:15:49;;;;;;;8.50;6.00;;;4.40;99.90;;;;;;5032123;28;20181;-74
2022/01/17 11:18:22;;;;;;;8.90;6.43;;;4.40;99.90;;;;;;5032719;28;20646;-73
2022/01/17 11:20:50;;;;;;;7.77;5.17;;;4.40;99.90;;;;;;5032419;28;20177;-73
2022/01/17 11:23:17;;;;;;;7.33;5.37;;;4.40;99.90;;;;;;5032094;28;20310;-74
2022/01/17 11:25:44;;;;;;;6.23;5.40;;;4.40;99.90;;;;;;5029076;28;20285;-74
2022/01/17 11:28:11;;;;;;;5.30;4.80;;;4.40;99.90;;;;;;5031600;28;20236;-73
2022/01/17 11:30:39;;;;;;;6.77;6.10;;;4.40;99.90;;;;;;5027028;28;20180;-74
2022/01/17 11:33:08;;;;;;;8.00;6.37;;;4.40;99.90;;;;;;5031857;28;20224;-75
2022/01/17 11:35:37;;;;;;;5.40;4.80;;;4.50;99.90;;;;;;5036406;28;20176;-74
2022/01/17 11:38:04;;;;;;;6.23;5.17;;;4.50;99.90;;;;;;5027407;28;20181;-77
2022/01/17 11:40:37;;;;;;;8.50;6.30;;;4.40;99.90;;;;;;5028815;28;20471;-73
2022/01/17 11:43:20;;;;;;;7.33;5.80;;;4.40;99.90;;;;;;5029005;28;20687;-74
2022/01/17 11:45:47;;;;;;;6.27;5.47;;;4.40;99.90;;;;;;5035368;28;20616;-73
2022/01/17 11:48:18;;;;;;;5.43;4.33;;;4.50;99.90;;;;;;5034323;28;20205;-74
2022/01/17 11:50:47;;;;;;;6.93;6.00;;;4.50;99.90;;;;;;5033920;28;20177;-72
2022/01/17 11:53:12;;;;;;;5.60;4.87;;;4.50;99.90;;;;;;5031286;28;20520;-73
2022/01/17 11:55:38;;;;;;;5.87;5.27;;;4.50;99.90;;;;;;5032193;28;20711;-73
2022/01/17 11:58:30;;;;;;;5.07;4.47;;;4.50;99.90;;;;;;5030697;28;20641;-74
2022/01/17 12:01:01;;;;;;;6.97;5.70;;;4.50;99.90;;;;;;5036220;28;20279;-73
2022/01/17 12:03:40;;;;;;;8.23;5.77;;;4.50;99.90;;;;;;5026505;28;20310;-73
2022/01/17 12:06:38;;;;;;;6.77;6.07;;;4.50;99.90;;;;;;5028321;28;20196;-74
2022/01/17 12:09:21;;;;;;;7.10;5.33;;;4.50;99.90;;;;;;5025153;28;20230;-75
2022/01/17 12:12:02;;;;;;;6.67;5.13;;;4.60;99.90;;;;;;5020709;28;20187;-76
2022/01/17 12:14:32;;;;;;;7.80;4.90;;;4.80;99.90;;;;;;5020638;28;20644;-76
2022/01/17 12:17:20;;;;;;;7.10;4.90;;;5.00;99.90;;;;;;5028127;28;20529;-73
2022/01/17 12:20:06;;;;;;;6.00;3.90;;;5.10;99.90;;;;;;5028408;28;20248;-74
2022/01/17 12:22:49;;;;;;;7.23;5.23;;;5.10;99.90;;;;;;5023553;28;20187;-75
2022/01/17 12:25:35;;;;;;;4.13;3.73;;;5.30;99.90;;;;;;5027367;28;20180;-73
2022/01/17 12:28:03;;;;;;;5.73;4.93;;;5.30;99.90;;;;;;5031411;28;20345;-75
2022/01/17 12:30:49;;;;;;;5.77;4.90;;;5.10;99.90;;;;;;5034595;28;20188;-74
2022/01/17 12:33:39;;;;;;;6.17;5.30;;;4.90;99.90;;;;;;5032363;28;20212;-74
2022/01/17 12:36:24;;;;;;;5.70;5.00;;;4.80;99.90;;;;;;5027171;28;20572;-74
2022/01/17 12:38:51;;;;;;;6.67;5.30;;;4.80;99.90;;;;;;5030943;28;20181;-74
2022/01/17 12:41:34;;;;;;;7.07;5.67;;;4.80;99.90;;;;;;5037861;28;20184;-74
2022/01/17 12:44:10;;;;;;;9.03;5.73;;;4.80;99.90;;;;;;5019711;28;20204;-74
2022/01/17 12:46:37;;;;;;;5.43;4.33;;;4.80;99.90;;;;;;5023872;28;20192;-74
2022/01/17 12:49:02;;;;;;;7.47;4.80;;;4.80;99.90;;;;;;5026029;28;20231;-74
2022/01/17 12:51:28;;;;;;;5.63;5.03;;;4.90;99.90;;;;;;5027176;28;20644;-74
2022/01/17 12:53:54;;;;;;;6.93;5.07;;;5.00;99.90;;;;;;5028513;28;20214;-74
2022/01/17 12:56:21;;;;;;;4.50;3.87;;;5.00;99.90;;;;;;5022039;28;20184;-74
2022/01/17 12:58:47;;;;;;;6.80;4.53;;;5.10;99.90;;;;;;5020852;28;20234;-74
2022/01/17 13:01:15;;;;;;;5.63;5.00;;;5.30;99.90;;;;;;5023681;28;20557;-73
2022/01/17 13:03:43;;;;;;;4.47;4.03;;;5.50;99.90;;;;;;5029835;28;20209;-72
2022/01/17 13:06:16;;;;;;;5.50;4.82;;;5.70;99.90;;;;;;5016526;28;20304;-73
2022/01/17 13:08:43;;;;;;;6.53;5.03;;;5.70;99.90;;;;;;5021338;28;20442;-72
2022/01/17 13:11:24;;;;;;;4.85;4.35;;;5.60;99.90;;;;;;5033833;28;20683;-73
2022/01/17 13:13:53;;;;;;;5.15;4.32;;;5.80;99.90;;;;;;5017319;28;20201;-74